Time;durP1;ratioP1;P1;durP2;ratioP2;P2;SDS_P1;SDS_P2;PMS_P1;PMS_P2;Temp;Humidity;BMP_temperature;BMP_pressure;BME280_temperature;BME280_humidity;BME280_pressure;Samples;Min_cycle;Max_cycle;Signal;HPM_P1;HPM_P2
2024/02/14 00:01:15;;;;;;;5.73;3.20;;;;;;;19.36;52.95;97923.00;5046221;28;20228;-26
2024/02/14 00:03:42;;;;;;;3.37;3.07;;;;;;;19.37;52.51;97936.63;5049864;28;20475;-25
2024/02/14 00:06:09;;;;;;;3.30;2.80;;;;;;;19.38;52.46;97923.06;5033806;28;20342;-25
2024/02/14 00:08:37;;;;;;;3.73;3.37;;;;;;;19.38;52.91;97929.06;5050827;28;20671;-25
2024/02/14 00:11:04;;;;;;;3.90;3.40;;;;;;;19.38;52.55;97921.41;5048910;28;20735;-25
2024/02/14 00:13:33;;;;;;;4.00;3.37;;;;;;;19.40;52.44;97924.91;5053362;28;20212;-25
2024/02/14 00:16:01;;;;;;;4.00;3.17;;;;;;;19.42;52.43;97924.97;5053344;28;20292;-26
2024/02/14 00:18:29;;;;;;;3.83;3.10;;;;;;;19.42;52.42;97936.03;5052951;28;20262;-26
2024/02/14 00:20:56;;;;;;;3.97;3.20;;;;;;;19.41;52.65;97921.53;5053155;28;20228;-25
2024/02/14 00:23:22;;;;;;;4.63;3.30;;;;;;;19.42;52.53;97930.06;5048957;28;20204;-25
2024/02/14 00:25:49;;;;;;;3.70;3.23;;;;;;;19.36;52.40;97919.59;5054486;28;20578;-25
2024/02/14 00:28:15;;;;;;;3.57;3.13;;;;;;;19.42;52.23;97930.91;5054119;28;20208;-26
2024/02/14 00:30:42;;;;;;;4.17;3.30;;;;;;;19.43;52.35;97931.81;5056801;28;20263;-25
2024/02/14 00:33:09;;;;;;;4.37;3.50;;;;;;;19.43;52.51;97932.69;5054437;28;20236;-25
2024/02/14 00:35:35;;;;;;;4.17;3.27;;;;;;;19.21;52.37;97890.84;5054619;28;20255;-27
2024/02/14 00:38:02;;;;;;;3.93;3.30;;;;;;;19.43;52.45;97942.00;5054438;28;20311;-25
2024/02/14 00:40:29;;;;;;;3.70;3.00;;;;;;;19.40;52.28;97936.75;5054148;28;20290;-25
2024/02/14 00:42:55;;;;;;;4.40;3.20;;;;;;;19.37;52.69;97932.41;5053832;28;20201;-25
2024/02/14 00:45:22;;;;;;;3.77;3.37;;;;;;;19.38;53.11;97934.16;5053105;28;20211;-32
2024/02/14 00:47:49;;;;;;;3.63;3.10;;;;;;;19.32;52.73;97930.44;5051133;28;20629;-25
2024/02/14 00:50:16;;;;;;;7.17;3.40;;;;;;;19.40;52.75;97949.50;5054111;28;20290;-25
2024/02/14 00:52:43;;;;;;;3.03;2.70;;;;;;;19.38;52.58;97944.34;5054364;28;20251;-27
2024/02/14 00:55:09;;;;;;;3.90;3.50;;;;;;;19.41;52.12;97946.16;5053746;28;20201;-27
2024/02/14 00:57:37;;;;;;;4.50;3.53;;;;;;;19.40;52.51;97945.28;5053779;28;20631;-25
2024/02/14 01:00:05;;;;;;;4.07;3.37;;;;;;;19.41;52.54;97946.16;5050361;28;20252;-25
2024/02/14 01:02:32;;;;;;;3.53;3.20;;;;;;;19.41;52.79;97944.47;5053796;28;20592;-27
2024/02/14 01:04:59;;;;;;;3.83;3.50;;;;;;;19.43;52.41;97947.09;5054776;28;20236;-26
2024/02/14 01:07:25;;;;;;;3.63;3.23;;;;;;;19.43;52.46;97947.09;5053616;28;20201;-25
2024/02/14 01:09:52;;;;;;;4.00;3.30;;;;;;;19.43;52.44;97940.34;5054046;28;20220;-25
2024/02/14 01:12:19;;;;;;;3.87;3.17;;;;;;;19.45;52.25;97937.84;5053758;28;20202;-25
2024/02/14 01:14:45;;;;;;;4.37;3.33;;;;;;;19.45;52.11;97940.41;5053818;28;20254;-25
2024/02/14 01:17:12;;;;;;;3.53;3.20;;;;;;;19.42;52.40;97941.13;5047325;28;20206;-25
2024/02/14 01:19:38;;;;;;;4.13;3.20;;;;;;;19.38;52.39;97938.38;5045809;28;20267;-25
2024/02/14 01:22:07;;;;;;;4.27;3.30;;;;;;;19.37;52.53;97942.59;5053099;28;20235;-25
2024/02/14 01:24:33;;;;;;;3.93;3.47;;;;;;;19.37;52.53;97942.59;5053747;28;20667;-25
2024/02/14 01:27:00;;;;;;;3.37;2.97;;;;;;;19.38;52.89;97948.56;5050699;28;20229;-28
2024/02/14 01:29:27;;;;;;;5.23;3.33;;;;;;;19.38;52.67;97935.81;5050713;28;20288;-25
2024/02/14 01:31:54;;;;;;;4.00;3.33;;;;;;;19.38;52.69;97933.25;5040673;28;20741;-34
2024/02/14 01:34:21;;;;;;;3.80;3.40;;;;;;;19.39;52.44;97937.59;5053132;28;20209;-25
2024/02/14 01:36:47;;;;;;;3.27;2.97;;;;;;;19.38;52.48;97934.16;5047612;28;20205;-26
2024/02/14 01:39:14;;;;;;;3.47;3.17;;;;;;;19.38;52.36;97934.16;5048777;28;20209;-25
2024/02/14 01:41:46;;;;;;;4.23;3.20;;;;;;;19.12;52.45;97890.44;5053606;28;20225;-26
2024/02/14 01:44:12;;;;;;;4.00;3.40;;;;;;;19.39;52.40;97943.53;5039986;28;20526;-31
2024/02/14 01:46:39;;;;;;;3.73;3.17;;;;;;;19.39;52.37;97940.97;5053117;28;20289;-25
2024/02/14 01:49:06;;;;;;;4.67;3.30;;;;;;;19.39;52.27;97935.03;5031717;28;20208;-25
2024/02/14 01:51:32;;;;;;;4.50;3.37;;;;;;;19.39;52.35;97935.03;5024698;28;20213;-25
2024/02/14 01:54:00;;;;;;;3.93;3.07;;;;;;;19.39;52.42;97940.13;5016690;28;20245;-29
2024/02/14 01:56:27;;;;;;;3.90;3.27;;;;;;;19.37;52.51;97946.81;5035137;28;20295;-25
2024/02/14 01:58:54;;;;;;;3.90;3.50;;;;;;;19.35;52.69;97950.97;5033769;28;20674;-25
2024/02/14 02:01:21;;;;;;;3.50;3.20;;;;;;;19.34;52.66;97945.03;5016109;28;20222;-25
2024/02/14 02:03:47;;;;;;;3.33;3.00;;;;;;;19.34;52.54;97941.59;5011108;28;20210;-25
2024/02/14 02:06:15;;;;;;;4.40;3.30;;;;;;;19.30;52.74;97934.63;5034568;28;20295;-26
2024/02/14 02:08:45;;;;;;;3.53;3.23;;;;;;;19.34;52.74;97941.59;5008447;28;20202;-25
2024/02/14 02:11:12;;;;;;;3.60;3.30;;;;;;;19.35;52.80;97938.22;5031523;28;20232;-28
2024/02/14 02:13:39;;;;;;;4.67;3.40;;;;;;;19.36;52.68;97942.53;5053022;28;20235;-27
2024/02/14 02:16:06;;;;;;;3.63;3.30;;;;;;;19.37;52.55;97941.72;5039613;28;20275;-26
2024/02/14 02:18:32;;;;;;;3.67;3.33;;;;;;;19.36;52.35;97932.34;5049847;28;20663;-25
2024/02/14 02:20:59;;;;;;;4.67;3.50;;;;;;;19.38;52.56;97928.16;5047169;28;20224;-25
2024/02/14 02:23:26;;;;;;;3.53;3.23;;;;;;;19.39;52.54;97928.25;5052421;28;20208;-25
2024/02/14 02:25:52;;;;;;;3.83;3.30;;;;;;;19.39;52.55;97930.78;5052463;28;20737;-25
2024/02/14 02:28:19;;;;;;;3.87;3.17;;;;;;;19.40;52.43;97935.09;5042619;28;20206;-25
2024/02/14 02:30:46;;;;;;;3.87;3.50;;;;;;;19.38;52.56;97929.06;5045982;28;20221;-25
2024/02/14 02:33:13;;;;;;;5.00;3.20;;;;;;;19.39;52.55;97935.03;5043775;28;20276;-27
2024/02/14 02:35:42;;;;;;;4.47;3.40;;;;;;;19.35;52.83;97938.22;5050936;28;20205;-25
2024/02/14 02:38:08;;;;;;;3.30;3.00;;;;;;;19.33;52.23;97933.06;5051311;28;20208;-27
2024/02/14 02:40:35;;;;;;;3.67;3.10;;;;;;;19.33;52.59;97937.31;5052066;28;20321;-27
2024/02/14 02:43:03;;;;;;;4.53;3.37;;;;;;;19.34;52.61;97936.50;5052355;28;20622;-25
2024/02/14 02:45:29;;;;;;;3.80;3.40;;;;;;;19.33;52.54;97930.50;5048053;28;20208;-26
2024/02/14 02:47:56;;;;;;;3.83;3.40;;;;;;;19.32;52.67;97928.78;5042505;28;20580;-25
2024/02/14 02:50:22;;;;;;;3.70;3.27;;;;;;;19.37;52.82;97936.63;5041697;28;20225;-25
2024/02/14 02:52:49;;;;;;;3.63;3.17;;;;;;;19.36;52.47;97924.72;5051939;28;20228;-25
2024/02/14 02:55:18;;;;;;;4.73;3.20;;;;;;;19.38;52.49;97935.81;5047057;28;20306;-26
2024/02/14 02:57:45;;;;;;;3.37;3.07;;;;;;;19.39;52.56;97940.13;5043381;28;20204;-25
2024/02/14 03:00:15;;;;;;;4.83;3.40;;;;;;;19.40;52.47;97934.22;5051922;28;20278;-26
2024/02/14 03:02:44;;;;;;;4.60;3.70;;;;;;;19.40;52.39;97935.09;5040777;28;20304;-25
2024/02/14 03:05:17;;;;;;;3.57;3.27;;;;;;;19.39;52.22;97935.03;5048074;28;20220;-35
2024/02/14 03:07:45;;;;;;;3.70;3.37;;;;;;;19.40;52.38;97941.88;5055898;28;20233;-34
2024/02/14 03:10:14;;;;;;;3.50;3.03;;;;;;;19.41;52.50;97936.84;5050291;28;20228;-25
2024/02/14 03:12:41;;;;;;;3.23;2.93;;;;;;;19.35;52.57;97941.66;5043904;28;20255;-25
2024/02/14 03:15:10;;;;;;;3.40;3.10;;;;;;;19.36;52.84;97952.75;5047122;28;20296;-25
2024/02/14 03:17:37;;;;;;;3.97;3.17;;;;;;;19.34;52.72;97939.03;5044779;28;20292;-25
2024/02/14 03:20:10;;;;;;;3.50;3.20;;;;;;;19.33;52.69;97943.25;5041303;28;20225;-25
2024/02/14 03:22:44;;;;;;;3.90;3.50;;;;;;;19.34;52.53;97937.38;5043455;28;20239;-26
2024/02/14 03:25:16;;;;;;;3.73;3.33;;;;;;;19.37;52.60;97937.50;5050032;28;20247;-26
2024/02/14 03:27:47;;;;;;;3.37;3.00;;;;;;;19.36;52.51;97934.91;5039289;28;20202;-25
2024/02/14 03:30:16;;;;;;;3.90;3.37;;;;;;;19.38;52.38;97943.47;5038467;28;20275;-26
2024/02/14 03:32:44;;;;;;;3.30;2.90;;;;;;;19.38;52.45;97939.25;5039055;28;20729;-25
2024/02/14 03:35:13;;;;;;;3.40;3.10;;;;;;;19.38;52.47;97935.81;5047374;28;20197;-26
2024/02/14 03:37:43;;;;;;;3.60;3.20;;;;;;;19.38;52.45;97936.69;5044391;28;20202;-30
2024/02/14 03:40:11;;;;;;;4.30;3.27;;;;;;;19.40;52.49;97934.22;5039955;28;20744;-26
2024/02/14 03:42:39;;;;;;;3.60;3.27;;;;;;;19.40;52.69;97932.56;5046467;28;20311;-29
2024/02/14 03:45:07;;;;;;;3.57;3.23;;;;;;;19.38;52.46;97931.59;5050510;28;20208;-32
2024/02/14 03:47:35;;;;;;;3.97;3.57;;;;;;;19.42;52.16;97940.25;5039753;28;20258;-26
2024/02/14 03:50:04;;;;;;;3.50;3.20;;;;;;;19.37;52.33;97932.41;5036090;28;20225;-30
2024/02/14 03:52:33;;;;;;;3.30;3.00;;;;;;;19.34;52.57;97931.41;5050940;28;20206;-27
2024/02/14 03:55:00;;;;;;;3.43;3.13;;;;;;;19.35;52.51;97935.69;5040743;28;20226;-25
2024/02/14 03:57:30;;;;;;;3.97;3.40;;;;;;;19.34;52.55;97946.69;5034352;28;20224;-25
2024/02/14 04:00:01;;;;;;;4.20;3.57;;;;;;;19.36;52.59;97942.53;5040368;28;20288;-27
2024/02/14 04:02:28;;;;;;;3.53;3.17;;;;;;;19.36;52.64;97945.94;5052498;28;20212;-25
2024/02/14 04:04:55;;;;;;;4.70;3.53;;;;;;;19.36;52.54;97940.84;5055163;28;20466;-26
2024/02/14 04:07:22;;;;;;;3.63;3.33;;;;;;;19.38;52.41;97933.25;5055533;28;20287;-26
2024/02/14 04:09:48;;;;;;;3.77;3.40;;;;;;;19.31;52.46;97932.16;5046906;28;20217;-25
2024/02/14 04:12:15;;;;;;;3.67;3.37;;;;;;;19.38;52.54;97939.25;5046897;28;20209;-28
2024/02/14 04:14:42;;;;;;;3.60;3.30;;;;;;;19.32;52.47;97925.34;5050027;28;20632;-25
2024/02/14 04:17:08;;;;;;;3.47;3.03;;;;;;;19.39;52.36;97935.03;5043939;28;20201;-25
2024/02/14 04:19:35;;;;;;;4.67;3.70;;;;;;;19.32;52.38;97928.78;5048062;28;20731;-25
2024/02/14 04:22:02;;;;;;;3.37;3.07;;;;;;;19.40;52.58;97941.88;5045558;28;20216;-25
2024/02/14 04:24:28;;;;;;;3.77;3.37;;;;;;;19.40;52.34;97946.97;5049294;28;20279;-25
2024/02/14 04:26:56;;;;;;;3.57;3.23;;;;;;;19.37;52.40;97941.72;5043074;28;20660;-25
2024/02/14 04:29:23;;;;;;;3.30;3.00;;;;;;;19.35;52.88;97938.22;5050383;28;20212;-25
2024/02/14 04:31:52;;;;;;;3.37;3.00;;;;;;;19.34;52.53;97942.47;5046515;28;20204;-32
2024/02/14 04:34:19;;;;;;;3.30;3.00;;;;;;;19.33;52.21;97947.50;5044039;28;20216;-25
2024/02/14 04:36:46;;;;;;;4.00;3.60;;;;;;;19.33;52.75;97945.81;5052922;28;20206;-26
2024/02/14 04:39:13;;;;;;;3.50;3.20;;;;;;;19.34;52.63;97947.56;5048670;28;20201;-25
2024/02/14 04:41:39;;;;;;;3.60;3.30;;;;;;;19.35;52.43;97956.94;5046470;28;20263;-24
2024/02/14 04:44:23;;;;;;;4.60;3.27;;;;;;;19.37;52.22;97949.38;5049085;28;20584;-28
2024/02/14 04:46:49;;;;;;;3.40;3.10;;;;;;;19.38;52.70;97954.53;5027923;28;20236;-25
2024/02/14 04:49:16;;;;;;;3.60;3.30;;;;;;;19.37;52.55;97946.81;5046773;28;20654;-25
2024/02/14 04:51:42;;;;;;;3.37;3.07;;;;;;;19.37;52.53;97940.06;5048721;28;20607;-26
2024/02/14 04:54:09;;;;;;;3.90;3.53;;;;;;;19.36;52.41;97940.84;5052313;28;20276;-25
2024/02/14 04:56:36;;;;;;;3.60;3.30;;;;;;;19.38;52.40;97938.38;5050805;28;20205;-25
2024/02/14 04:59:04;;;;;;;3.43;3.07;;;;;;;19.38;52.42;97946.91;5041162;28;20212;-28
2024/02/14 05:01:31;;;;;;;4.10;3.47;;;;;;;19.38;52.48;97949.44;5046872;28;20229;-27
2024/02/14 05:03:58;;;;;;;3.10;2.80;;;;;;;19.36;52.46;97952.75;5049675;28;20205;-25
2024/02/14 05:06:25;;;;;;;4.60;3.50;;;;;;;19.32;52.54;97941.53;5043366;28;20279;-25
2024/02/14 05:08:51;;;;;;;3.43;3.10;;;;;;;19.33;52.61;97937.31;5042743;28;20205;-28
2024/02/14 05:11:18;;;;;;;3.17;2.87;;;;;;;19.30;52.63;97945.66;5052524;28;20233;-25
2024/02/14 05:13:46;;;;;;;3.43;3.13;;;;;;;19.33;52.54;97950.06;5056632;28;20289;-25
2024/02/14 05:16:13;;;;;;;3.37;3.07;;;;;;;19.34;52.59;97949.25;5045410;28;20205;-25
2024/02/14 05:18:39;;;;;;;3.87;3.37;;;;;;;19.35;52.52;97944.22;5043722;28;20205;-25
2024/02/14 05:21:07;;;;;;;3.27;2.97;;;;;;;19.33;52.38;97933.06;5051468;28;20220;-25
2024/02/14 05:23:35;;;;;;;3.77;2.93;;;;;;;19.37;52.55;97936.63;5052687;28;20217;-26
2024/02/14 05:26:05;;;;;;;3.43;3.03;;;;;;;19.37;52.47;97934.09;5043772;28;20209;-25
2024/02/14 05:28:31;;;;;;;3.93;3.33;;;;;;;19.37;52.25;97934.09;5062071;28;20204;-25
2024/02/14 05:30:59;;;;;;;3.83;3.43;;;;;;;19.37;52.32;97929.88;5052498;28;20225;-25
2024/02/14 05:33:26;;;;;;;3.37;3.07;;;;;;;19.38;52.38;97938.38;5049878;28;20229;-25
2024/02/14 05:35:53;;;;;;;3.40;3.10;;;;;;;19.38;52.78;97933.25;5052158;28;20232;-25
2024/02/14 05:38:19;;;;;;;3.50;3.10;;;;;;;19.34;52.87;97942.47;5051489;28;20251;-25
2024/02/14 05:40:46;;;;;;;3.47;3.17;;;;;;;19.33;52.54;97942.41;5056319;28;20225;-25
2024/02/14 05:43:13;;;;;;;3.30;3.00;;;;;;;19.31;52.53;97949.09;5050762;28;20298;-26
2024/02/14 05:45:40;;;;;;;3.17;2.87;;;;;;;19.33;52.68;97960.25;5042902;28;20201;-25
2024/02/14 05:48:07;;;;;;;3.50;3.20;;;;;;;19.32;52.45;97959.38;5050358;28;20259;-27
2024/02/14 05:50:34;;;;;;;3.23;2.93;;;;;;;19.34;52.67;97970.50;5051196;28;20216;-25
2024/02/14 05:53:01;;;;;;;4.23;3.13;;;;;;;19.35;52.52;97968.81;5045318;28;20197;-25
2024/02/14 05:55:28;;;;;;;3.23;3.00;;;;;;;19.35;51.83;97972.25;5050411;28;20256;-26
2024/02/14 05:57:54;;;;;;;6.50;4.20;;;;;;;19.36;49.18;97984.16;5053162;28;20243;-25
2024/02/14 06:00:21;;;;;;;5.60;4.67;;;;;;;19.33;47.16;97976.38;5055560;28;20262;-25
2024/02/14 06:02:52;;;;;;;6.13;4.60;;;;;;;19.34;45.66;97974.72;5054079;28;20216;-25
2024/02/14 06:05:19;;;;;;;6.97;5.17;;;;;;;19.34;46.01;97977.28;5055146;28;20197;-25
2024/02/14 06:07:46;;;;;;;6.77;6.07;;;;;;;19.36;46.33;97978.22;5052693;28;20236;-26
2024/02/14 06:10:12;;;;;;;7.63;5.17;;;;;;;19.37;47.45;97970.66;5051479;28;20311;-25
2024/02/14 06:12:43;;;;;;;6.10;5.13;;;;;;;19.41;48.15;97975.06;5050160;28;20256;-25
2024/02/14 06:15:10;;;;;;;8.23;5.00;;;;;;;19.41;48.54;97977.63;5055535;28;20298;-25
2024/02/14 06:17:36;;;;;;;8.87;5.00;;;;;;;19.41;49.19;97969.97;5053906;28;20201;-25
2024/02/14 06:20:06;;;;;;;6.80;4.43;;;;;;;19.42;49.41;97979.34;5047915;28;20224;-25
2024/02/14 06:22:34;;;;;;;6.23;4.63;;;;;;;19.43;49.71;97981.13;5042269;28;20312;-25
2024/02/14 06:25:07;;;;;;;6.63;5.10;;;;;;;19.45;49.78;97976.09;5052261;28;20201;-25
2024/02/14 06:27:33;;;;;;;4.97;4.47;;;;;;;19.45;49.84;97971.84;5052112;28;20228;-25
2024/02/14 06:30:00;;;;;;;6.10;4.80;;;;;;;19.45;50.06;97971.84;5049880;28;20225;-25
2024/02/14 06:32:27;;;;;;;5.97;4.67;;;;;;;19.44;50.13;97970.09;5050861;28;20588;-26
2024/02/14 06:34:54;;;;;;;5.13;4.60;;;;;;;19.46;50.10;97982.91;5052957;28;20229;-25
2024/02/14 06:37:20;;;;;;;5.60;4.70;;;;;;;19.47;50.00;97977.00;5059751;28;20204;-25
2024/02/14 06:39:48;;;;;;;4.97;4.07;;;;;;;19.47;50.11;97977.00;5048036;28;20278;-29
2024/02/14 06:42:15;;;;;;;4.97;4.30;;;;;;;19.49;50.32;97994.13;5042656;28;20702;-25
2024/02/14 06:44:42;;;;;;;6.97;4.67;;;;;;;19.49;50.28;97998.34;5051290;28;20211;-25
2024/02/14 06:47:09;;;;;;;6.00;4.50;;;;;;;19.49;49.95;98006.00;5040893;28;20570;-25
2024/02/14 06:49:35;;;;;;;5.03;4.40;;;;;;;19.51;49.92;98012.03;5045094;28;20197;-26
2024/02/14 06:52:02;;;;;;;6.63;5.77;;;;;;;19.51;47.41;98012.03;5048601;28;20568;-25
2024/02/14 06:54:29;;;;;;;6.43;5.73;;;;;;;19.53;47.67;98006.19;5049349;28;20201;-25
2024/02/14 06:56:55;;;;;;;7.93;5.40;;;;;;;19.54;48.91;98007.94;5041356;28;20258;-25
2024/02/14 06:59:22;;;;;;;10.57;7.03;;;;;;;19.58;44.56;97999.63;5052834;28;20254;-27
2024/02/14 07:01:48;;;;;;;14.97;7.27;;;;;;;19.58;42.41;97997.09;5052794;28;20228;-26
2024/02/14 07:04:15;;;;;;;9.77;7.67;;;;;;;19.60;42.15;98007.34;5048414;28;20224;-25
2024/02/14 07:06:42;;;;;;;12.20;7.50;;;;;;;19.56;43.61;98011.44;5050814;28;20228;-25
2024/02/14 07:09:10;;;;;;;10.63;7.53;;;;;;;19.55;44.27;98017.34;5043515;28;20250;-25
2024/02/14 07:11:39;;;;;;;10.27;6.77;;;;;;;19.53;45.29;98034.25;5040916;28;20222;-25
2024/02/14 07:14:05;;;;;;;8.43;6.80;;;;;;;19.52;45.92;98024.88;5039205;28;20261;-25
2024/02/14 07:16:32;;;;;;;10.13;6.37;;;;;;;19.51;46.31;98023.09;5049129;28;20205;-25
2024/02/14 07:18:59;;;;;;;8.37;6.73;;;;;;;19.51;46.76;98035.00;5053367;28;20623;-29
2024/02/14 07:21:26;;;;;;;8.57;7.07;;;;;;;19.46;46.85;98019.50;5049090;28;20529;-25
2024/02/14 07:23:53;;;;;;;8.40;6.17;;;;;;;19.47;47.72;98023.78;5031560;28;20217;-25
2024/02/14 07:26:20;;;;;;;7.37;6.57;;;;;;;19.46;47.79;98027.13;5041536;28;20201;-25
2024/02/14 07:28:47;;;;;;;6.73;5.97;;;;;;;19.46;48.15;98021.16;5052726;28;20287;-25
2024/02/14 07:31:13;;;;;;;9.33;6.47;;;;;;;19.47;47.99;98030.53;5054287;28;20213;-25
2024/02/14 07:33:43;;;;;;;9.43;6.33;;;;;;;19.48;48.34;98030.59;5047664;28;20199;-28
2024/02/14 07:36:10;;;;;;;7.03;6.07;;;;;;;19.47;48.41;98028.88;5053050;28;20197;-26
2024/02/14 07:38:36;;;;;;;6.43;5.60;;;;;;;19.47;48.44;98036.50;5049387;28;20205;-25
2024/02/14 07:41:03;;;;;;;6.40;5.73;;;;;;;19.48;48.45;98040.81;5050474;28;20604;-25
2024/02/14 07:43:29;;;;;;;6.77;6.07;;;;;;;19.44;48.55;98036.38;5054482;28;20763;-27
2024/02/14 07:45:56;;;;;;;6.63;5.67;;;;;;;19.47;48.77;98040.72;5047405;28;20710;-25
2024/02/14 07:48:23;;;;;;;8.30;6.43;;;;;;;19.43;48.38;98032.09;5041941;28;20193;-25
2024/02/14 07:50:49;;;;;;;6.00;5.40;;;;;;;19.39;49.05;98030.19;5043322;28;20271;-25
2024/02/14 07:53:16;;;;;;;5.83;5.23;;;;;;;19.36;49.18;98030.03;5047580;28;20284;-27
2024/02/14 07:55:42;;;;;;;8.83;5.87;;;;;;;19.34;49.35;98026.56;5046309;28;20197;-25
2024/02/14 07:58:09;;;;;;;5.90;5.40;;;;;;;19.36;49.23;98026.66;5050767;28;20197;-25
2024/02/14 08:00:35;;;;;;;7.10;5.57;;;;;;;19.36;49.40;98016.44;5054516;28;20308;-25
2024/02/14 08:03:03;;;;;;;5.87;5.27;;;;;;;19.37;49.23;98018.19;5048915;28;20236;-25
2024/02/14 08:05:30;;;;;;;7.10;5.10;;;;;;;19.39;49.50;98016.59;5049644;28;20197;-25
2024/02/14 08:07:57;;;;;;;5.77;5.00;;;;;;;19.39;49.44;98014.88;5048233;28;20295;-26
2024/02/14 08:10:23;;;;;;;6.13;5.50;;;;;;;19.40;49.52;98019.22;5049296;28;20278;-25
2024/02/14 08:12:50;;;;;;;5.80;5.30;;;;;;;19.42;48.50;98017.59;5047548;28;20193;-25
2024/02/14 08:15:16;;;;;;;7.10;5.10;;;;;;;19.44;48.46;98020.19;5050877;28;20285;-25
2024/02/14 08:17:43;;;;;;;5.27;4.77;;;;;;;19.43;48.31;98019.34;5051075;28;20208;-27
2024/02/14 08:20:12;;;;;;;7.20;5.00;;;;;;;19.42;48.93;98016.72;5043515;28;20216;-25
2024/02/14 08:22:39;;;;;;;5.63;4.87;;;;;;;19.45;49.57;98011.78;5042424;28;20228;-26
2024/02/14 08:25:06;;;;;;;6.43;5.23;;;;;;;19.46;49.49;98016.94;5053796;28;20209;-25
2024/02/14 08:27:33;;;;;;;5.87;5.20;;;;;;;19.48;49.33;98022.97;5053953;28;20202;-25
2024/02/14 08:30:00;;;;;;;6.33;5.17;;;;;;;19.50;49.68;98033.22;5048600;28;20220;-25
2024/02/14 08:32:26;;;;;;;5.77;4.70;;;;;;;19.53;49.64;98028.25;5056757;28;20225;-25
2024/02/14 08:34:53;;;;;;;6.50;5.23;;;;;;;19.50;49.80;98040.88;5046183;28;20226;-25
2024/02/14 08:37:20;;;;;;;5.07;4.50;;;;;;;19.49;49.80;98051.88;5055753;28;20204;-25
2024/02/14 08:39:47;;;;;;;9.37;4.30;;;;;;;19.45;50.05;98055.94;5055967;28;20216;-25
2024/02/14 08:42:13;;;;;;;5.73;4.40;;;;;;;19.43;48.96;98051.59;5047186;28;20284;-25
2024/02/14 08:44:40;;;;;;;5.00;4.40;;;;;;;19.39;48.98;98045.47;5051888;28;20203;-25
2024/02/14 08:47:07;;;;;;;6.87;4.50;;;;;;;19.39;48.05;98059.91;5055344;28;20207;-25
2024/02/14 08:49:33;;;;;;;5.77;4.70;;;;;;;19.41;47.37;98066.81;5057766;28;20622;-25
2024/02/14 08:52:00;;;;;;;6.13;4.90;;;;;;;19.41;46.26;98058.28;5047278;28;20205;-25
2024/02/14 08:54:28;;;;;;;7.43;5.10;;;;;;;19.40;46.23;98060.00;5045990;28;20232;-26
2024/02/14 08:56:58;;;;;;;6.27;4.40;;;;;;;19.42;46.28;98049.88;5052318;28;20354;-25
2024/02/14 08:59:25;;;;;;;6.43;4.60;;;;;;;19.42;47.18;98057.50;5052138;28;20247;-26
2024/02/14 09:01:51;;;;;;;6.17;4.50;;;;;;;19.42;47.71;98043.06;5050719;28;20198;-26
2024/02/14 09:04:18;;;;;;;5.00;4.47;;;;;;;19.44;48.22;98045.69;5050136;28;20213;-25
2024/02/14 09:06:45;;;;;;;5.53;4.77;;;;;;;19.44;48.64;98031.28;5045837;28;20229;-25
2024/02/14 09:09:14;;;;;;;6.10;4.17;;;;;;;19.44;48.82;98032.94;5053066;28;20205;-25
2024/02/14 09:11:41;;;;;;;4.80;4.27;;;;;;;19.45;48.91;98034.72;5053143;28;20224;-25
2024/02/14 09:14:07;;;;;;;4.90;4.00;;;;;;;19.45;49.09;98038.09;5054910;28;20203;-26
2024/02/14 09:16:34;;;;;;;5.57;4.60;;;;;;;19.45;49.36;98040.66;5053060;28;20232;-25
2024/02/14 09:19:05;;;;;;;5.03;4.03;;;;;;;19.46;49.26;98044.09;5049146;28;20200;-25
2024/02/14 09:21:34;;;;;;;4.63;4.17;;;;;;;19.42;49.34;98039.66;5052070;28;20282;-26
2024/02/14 09:24:01;;;;;;;4.93;4.13;;;;;;;19.37;49.29;98038.56;5043796;28;20221;-25
2024/02/14 09:26:28;;;;;;;4.60;4.20;;;;;;;19.38;49.07;98040.31;5053383;28;20283;-25
2024/02/14 09:28:55;;;;;;;4.30;3.43;;;;;;;19.36;49.48;98037.69;5051386;28;20202;-25
2024/02/14 09:31:22;;;;;;;7.37;4.20;;;;;;;19.37;49.52;98042.00;5048342;28;20213;-25
2024/02/14 09:33:48;;;;;;;5.23;3.93;;;;;;;19.39;49.63;98044.63;5048598;28;20718;-25
2024/02/14 09:36:15;;;;;;;4.87;4.37;;;;;;;19.39;49.00;98042.94;5051140;28;20193;-26
2024/02/14 09:38:42;;;;;;;4.10;3.70;;;;;;;19.43;49.16;98041.41;5033884;28;20197;-26
2024/02/14 09:41:35;;;;;;;4.37;3.97;;;;;;;19.41;49.38;98026.03;5050617;28;20224;-25
2024/02/14 09:44:01;;;;;;;4.53;4.03;;;;;;;19.41;49.36;98023.50;5050013;28;20717;-25
2024/02/14 09:46:30;;;;;;;5.87;4.30;;;;;;;19.42;49.67;98021.84;5046599;28;20632;-25
2024/02/14 09:48:57;;;;;;;4.73;3.90;;;;;;;19.43;49.61;98015.91;5051023;28;20201;-25
2024/02/14 09:51:23;;;;;;;4.50;3.60;;;;;;;19.42;49.57;98022.69;5031203;28;20243;-25
2024/02/14 09:53:50;;;;;;;4.13;3.73;;;;;;;19.44;49.72;98017.66;5041725;28;20276;-25
2024/02/14 09:56:18;;;;;;;4.50;4.10;;;;;;;19.43;49.58;98014.25;5051259;28;20207;-25
2024/02/14 09:58:45;;;;;;;4.27;3.70;;;;;;;19.42;49.61;98015.03;5054182;28;20196;-26
2024/02/14 10:01:13;;;;;;;4.73;3.67;;;;;;;19.42;49.74;98016.72;5026162;28;20245;-25
2024/02/14 10:03:39;;;;;;;3.97;3.57;;;;;;;19.39;49.91;98021.69;5049629;28;20213;-27
2024/02/14 10:06:06;;;;;;;4.67;3.63;;;;;;;19.35;49.83;98019.78;5046823;28;20205;-28
2024/02/14 10:08:33;;;;;;;5.90;3.80;;;;;;;19.36;49.78;98019.00;5052657;28;20204;-25
2024/02/14 10:10:59;;;;;;;4.63;3.30;;;;;;;19.37;49.55;98018.19;5032395;28;20232;-25
2024/02/14 10:13:31;;;;;;;3.90;3.50;;;;;;;19.37;49.83;98019.06;5052407;28;20671;-25
2024/02/14 10:15:58;;;;;;;4.20;3.77;;;;;;;19.39;50.10;98014.88;5046233;28;20205;-26
2024/02/14 10:18:26;;;;;;;3.83;3.23;;;;;;;19.40;49.98;98008.13;5029120;28;20201;-25
2024/02/14 10:20:56;;;;;;;4.20;3.50;;;;;;;19.40;49.91;98009.00;5046618;28;20253;-25
2024/02/14 10:23:23;;;;;;;4.43;3.97;;;;;;;19.40;50.01;98018.31;5051953;28;20260;-27
2024/02/14 10:25:52;;;;;;;3.50;3.20;;;;;;;19.40;47.76;98009.00;5040299;28;20232;-28
2024/02/14 10:28:19;;;;;;;4.10;3.60;;;;;;;19.40;48.60;98010.69;5026899;28;20204;-27
2024/02/14 10:30:51;;;;;;;3.90;3.47;;;;;;;19.40;48.52;98010.69;5045028;28;20225;-25
2024/02/14 10:33:21;;;;;;;4.73;3.90;;;;;;;19.41;49.07;98015.84;5034857;28;20201;-25
2024/02/14 10:35:54;;;;;;;4.17;3.80;;;;;;;19.43;49.67;98010.81;5044340;28;20675;-25
2024/02/14 10:38:25;;;;;;;3.80;3.40;;;;;;;19.42;49.56;98006.53;5046770;28;20201;-25
2024/02/14 10:40:52;;;;;;;4.23;3.27;;;;;;;19.45;49.01;98009.22;5032385;28;20286;-26
2024/02/14 10:43:18;;;;;;;4.00;3.60;;;;;;;19.50;49.64;98012.81;5028507;28;20227;-25
2024/02/14 10:45:45;;;;;;;3.87;3.37;;;;;;;19.50;49.62;98010.28;5030409;28;20201;-28
2024/02/14 10:48:12;;;;;;;2.97;2.73;;;;;;;19.54;49.76;97985.00;5044424;28;20206;-29
2024/02/14 10:50:42;;;;;;;3.67;3.33;;;;;;;19.49;49.93;98017.06;5040392;28;20705;-25
2024/02/14 10:53:13;;;;;;;3.60;3.30;;;;;;;19.44;49.86;98010.00;5013655;28;20198;-26
2024/02/14 10:55:41;;;;;;;3.80;3.20;;;;;;;19.43;49.83;98009.16;5041850;28;20277;-32
2024/02/14 10:58:08;;;;;;;4.23;3.27;;;;;;;19.43;49.88;98003.16;5029007;28;20237;-28
2024/02/14 11:00:34;;;;;;;3.43;3.13;;;;;;;19.41;49.77;98003.09;5022472;28;20217;-25
2024/02/14 11:03:01;;;;;;;3.47;3.17;;;;;;;19.46;49.93;98013.50;5025652;28;20690;-25
2024/02/14 11:05:28;;;;;;;4.27;3.50;;;;;;;19.48;49.78;98010.22;5046352;28;20746;-25
2024/02/14 11:07:55;;;;;;;3.50;3.20;;;;;;;19.49;49.91;98014.53;5050715;28;20714;-27
2024/02/14 11:10:22;;;;;;;4.10;3.70;;;;;;;19.50;50.03;98007.72;5047945;28;20232;-25
2024/02/14 11:12:50;;;;;;;3.60;3.30;;;;;;;19.48;49.83;98007.66;5047756;28;20224;-30
2024/02/14 11:15:22;;;;;;;5.00;3.30;;;;;;;19.49;49.90;98006.88;5047572;28;20236;-26
2024/02/14 11:17:49;;;;;;;3.47;3.10;;;;;;;19.50;49.60;98000.97;5047959;28;20197;-26
2024/02/14 11:20:17;;;;;;;3.50;3.20;;;;;;;19.50;49.82;98003.50;5045910;28;20626;-28
2024/02/14 11:22:54;;;;;;;3.10;2.80;;;;;;;19.47;49.93;97997.41;5045963;28;20209;-25
2024/02/14 11:25:24;;;;;;;4.53;3.23;;;;;;;19.44;49.96;98003.25;5038641;28;20205;-28
2024/02/14 11:27:51;;;;;;;3.63;3.20;;;;;;;19.21;49.98;97962.19;5048595;28;20196;-30
2024/02/14 11:30:30;;;;;;;3.43;3.13;;;;;;;19.42;49.95;97988.69;5047180;28;20237;-27
2024/02/14 11:33:16;;;;;;;4.20;3.47;;;;;;;19.45;50.01;97991.38;5035141;28;20208;-26
2024/02/14 11:35:43;;;;;;;4.83;3.47;;;;;;;19.44;50.05;97982.84;5034998;28;20203;-27